Time;durP1;ratioP1;P1;durP2;ratioP2;P2;SDS_P1;SDS_P2;PMS_P1;PMS_P2;Temp;Humidity;BMP_temperature;BMP_pressure;BME280_temperature;BME280_humidity;BME280_pressure;Samples;Min_cycle;Max_cycle;Signal;HPM_P1;HPM_P2
2024/04/10 00:03:48;;;;;;;10.9;6.9;;;;;;;13.38;67.45;98401.666666667;;;;
2024/04/10 00:13:48;;;;;;;10.9;6.9;;;;;;;13.41;67.05;98398.333333333;;;;
2024/04/10 00:24:48;;;;;;;10.9;6.9;;;;;;;13.56;67.62;98403.333333333;;;;
2024/04/10 00:35:48;;;;;;;7.1;4.1;;;;;;;14.32;65.64;98403.333333333;;;;
2024/04/10 00:46:48;;;;;;;7.1;4.1;;;;;;;14.54;64.32;98415;;;;
2024/04/10 00:56:48;;;;;;;9.8;4.4;;;;;;;13.78;70;98446.666666667;;;;
2024/04/10 01:06:48;;;;;;;9.8;4.4;;;;;;;13.54;70.42;98446.666666667;;;;
2024/04/10 01:17:48;;;;;;;9.8;4.4;;;;;;;13.25;72.27;98456.666666667;;;;
2024/04/10 01:28:48;;;;;;;9.3;5;;;;;;;13.36;70.89;98471.666666667;;;;
2024/04/10 01:38:50;;;;;;;9.3;5;;;;;;;13.47;71.41;98480;;;;
2024/04/10 01:49:48;;;;;;;9.3;5;;;;;;;13.61;72.2;98501.666666667;;;;
2024/04/10 02:00:48;;;;;;;11.2;6.5;;;;;;;13.66;72.77;98516.666666667;;;;
2024/04/10 02:10:48;;;;;;;11.2;6.5;;;;;;;13.75;73.11;98523.333333333;;;;
2024/04/10 02:20:48;;;;;;;11.2;6.5;;;;;;;13.86;73.97;98535;;;;
2024/04/10 02:31:48;;;;;;;14;8.7;;;;;;;13.89;74.2;98560;;;;
2024/04/10 02:41:49;;;;;;;14;8.7;;;;;;;13.86;75.16;98570;;;;
2024/04/10 02:52:48;;;;;;;14;8.7;;;;;;;13.98;76.09;98585;;;;
2024/04/10 03:02:48;;;;;;;16.5;7.1;;;;;;;14.05;76.61;98610;;;;
2024/04/10 03:13:48;;;;;;;16.5;7.1;;;;;;;14.08;77.2;98631.666666667;;;;
2024/04/10 03:24:48;;;;;;;16.5;7.1;;;;;;;14.18;79.07;98655;;;;
2024/04/10 03:34:48;;;;;;;14.2;8.1;;;;;;;14.32;78.81;98678.333333333;;;;
2024/04/10 03:45:49;;;;;;;14.2;8.1;;;;;;;14.43;79.63;98703.333333333;;;;
2024/04/10 03:55:48;;;;;;;14.2;8.1;;;;;;;14.48;79.06;98716.666666667;;;;
2024/04/10 04:06:48;;;;;;;18.8;9.8;;;;;;;14.61;79.88;98746.666666667;;;;
2024/04/10 04:16:48;;;;;;;18.8;9.8;;;;;;;14.88;79.68;98760;;;;
2024/04/10 04:26:48;;;;;;;21.1;9.2;;;;;;;15.07;78.8;98771.666666667;;;;
2024/04/10 04:37:48;;;;;;;21.1;9.2;;;;;;;15.14;78.92;98788.333333333;;;;
2024/04/10 04:47:48;;;;;;;21.1;9.2;;;;;;;15.4;78.64;98806.666666667;;;;
2024/04/10 04:58:48;;;;;;;15.9;8.1;;;;;;;15.59;78.51;98828.333333333;;;;
2024/04/10 05:08:48;;;;;;;15.9;8.1;;;;;;;15.75;78.49;98843.333333333;;;;
2024/04/10 05:19:48;;;;;;;15.9;8.1;;;;;;;15.79;78.35;98866.666666667;;;;
2024/04/10 05:30:48;;;;;;;17.9;8.1;;;;;;;15.9;78.32;98878.333333333;;;;
2024/04/10 05:41:48;;;;;;;17.9;8.1;;;;;;;15.94;78.38;98881.666666667;;;;
2024/04/10 05:52:48;;;;;;;17.9;8.1;;;;;;;15.98;78.53;98913.333333333;;;;
2024/04/10 06:03:50;;;;;;;14.6;7.2;;;;;;;15.58;78.79;98935;;;;
2024/04/10 06:13:51;;;;;;;14.6;7.2;;;;;;;15.43;78.48;98946.666666667;;;;
2024/04/10 06:24:48;;;;;;;14.6;7.2;;;;;;;15.22;79.63;98970;;;;
2024/04/10 06:35:48;;;;;;;14.4;6.3;;;;;;;14.97;80.53;98996.666666667;;;;
2024/04/10 06:46:48;;;;;;;14.4;6.3;;;;;;;14.69;82.88;99016.666666667;;;;
2024/04/10 06:57:48;;;;;;;13.2;6.8;;;;;;;14.5;84.35;99045;;;;
2024/04/10 07:08:48;;;;;;;13.2;6.8;;;;;;;14.47;80.21;99075;;;;
2024/04/10 07:18:48;;;;;;;13.2;6.8;;;;;;;14.21;78.99;99106.666666667;;;;
2024/04/10 07:29:51;;;;;;;26.5;17.8;;;;;;;14.09;78.53;99128.333333333;;;;
2024/04/10 07:39:48;;;;;;;26.5;17.8;;;;;;;13.78;76.69;99155;;;;
2024/04/10 07:49:49;;;;;;;26.5;17.8;;;;;;;13.57;76.59;99163.333333333;;;;
2024/04/10 07:59:48;;;;;;;20.5;13.4;;;;;;;13.36;77.16;99175;;;;
2024/04/10 08:10:48;;;;;;;20.5;13.4;;;;;;;13.23;77.37;99196.666666667;;;;
2024/04/10 08:21:48;;;;;;;20.5;13.4;;;;;;;13.11;77.97;99233.333333333;;;;
2024/04/10 08:31:48;;;;;;;24.3;15.5;;;;;;;13.08;77.44;99251.666666667;;;;
2024/04/10 08:42:49;;;;;;;24.3;15.5;;;;;;;12.81;76.89;99273.333333333;;;;
2024/04/10 08:52:48;;;;;;;24.3;15.5;;;;;;;12.91;75.58;99300;;;;
2024/04/10 09:02:48;;;;;;;20;14;;;;;;;12.96;73.76;99316.666666667;;;;
2024/04/10 09:13:48;;;;;;;20;14;;;;;;;13.01;72.71;99338.333333333;;;;
2024/04/10 09:23:48;;;;;;;20;14;;;;;;;13.04;71.62;99341.666666667;;;;
2024/04/10 09:33:48;;;;;;;13.5;8.1;;;;;;;13.23;70.48;99358.333333333;;;;
2024/04/10 09:44:48;;;;;;;13.5;8.1;;;;;;;13.42;69.34;99378.333333333;;;;
2024/04/10 09:54:48;;;;;;;13.5;8.1;;;;;;;13.64;68.81;99396.666666667;;;;
2024/04/10 10:05:48;;;;;;;10.2;7.1;;;;;;;13.6;67.67;99398.333333333;;;;
2024/04/10 10:16:48;;;;;;;10.2;7.1;;;;;;;14.01;66.39;99408.333333333;;;;
2024/04/10 10:27:48;;;;;;;12.4;6.7;;;;;;;14.26;66.45;99416.666666667;;;;
2024/04/10 10:37:48;;;;;;;12.4;6.7;;;;;;;14.13;66.37;99435;;;;
2024/04/10 10:48:48;;;;;;;12.4;6.7;;;;;;;13.97;69.15;99458.333333333;;;;
2024/04/10 10:58:48;;;;;;;13.5;6.2;;;;;;;14.01;69.06;99465;;;;
2024/04/10 11:08:48;;;;;;;13.5;6.2;;;;;;;14.08;68.95;99481.666666667;;;;
2024/04/10 11:19:48;;;;;;;13.5;6.2;;;;;;;14.25;67.67;99498.333333333;;;;
2024/04/10 11:29:50;;;;;;;10.7;5.8;;;;;;;14.27;68.35;99498.333333333;;;;
2024/04/10 11:40:48;;;;;;;10.7;5.8;;;;;;;14.48;66.98;99510;;;;
2024/04/10 11:51:48;;;;;;;10.7;5.8;;;;;;;14.38;68.07;99515;;;;
2024/04/10 12:01:49;;;;;;;10;5.4;;;;;;;14.42;68.3;99518.333333333;;;;
2024/04/10 12:12:48;;;;;;;10;5.4;;;;;;;14.74;68.17;99516.666666667;;;;
2024/04/10 12:22:48;;;;;;;10;5.4;;;;;;;15.03;65.55;99511.666666667;;;;
2024/04/10 12:33:48;;;;;;;11.6;7.2;;;;;;;15.44;64.13;99516.666666667;;;;
2024/04/10 12:43:50;;;;;;;11.6;7.2;;;;;;;15.5;65.2;99528.333333333;;;;
2024/04/10 12:53:48;;;;;;;11.6;7.2;;;;;;;14.81;66.18;99535;;;;
2024/04/10 13:04:48;;;;;;;12.1;7.3;;;;;;;14.31;67.73;99538.333333333;;;;
2024/04/10 13:15:48;;;;;;;12.1;7.3;;;;;;;13.89;68.98;99555;;;;
2024/04/10 13:26:48;;;;;;;10;6.6;;;;;;;14.12;69.53;99558.333333333;;;;
2024/04/10 13:37:48;;;;;;;10;6.6;;;;;;;13.68;69.79;99575;;;;
2024/04/10 13:48:48;;;;;;;10;6.6;;;;;;;13.59;69.94;99585;;;;
2024/04/10 13:58:48;;;;;;;11;6;;;;;;;13.21;70.05;99596.666666667;;;;
2024/04/10 14:09:48;;;;;;;11;6;;;;;;;13.43;69.72;99598.333333333;;;;
2024/04/10 14:19:49;;;;;;;11;6;;;;;;;13.55;69.67;99611.666666667;;;;
2024/04/10 14:29:48;;;;;;;10.7;6.7;;;;;;;13.44;69.36;99618.333333333;;;;
2024/04/10 14:39:48;;;;;;;10.7;6.7;;;;;;;13.56;69.07;99630;;;;
2024/04/10 14:50:48;;;;;;;10.7;6.7;;;;;;;13.56;69.38;99631.666666667;;;;
2024/04/10 15:00:48;;;;;;;10.4;5.9;;;;;;;13.5;68.96;99646.666666667;;;;
2024/04/10 15:11:48;;;;;;;10.4;5.9;;;;;;;13.61;68.19;99656.666666667;;;;
2024/04/10 15:22:49;;;;;;;10.4;5.9;;;;;;;13.22;68.7;99666.666666667;;;;
2024/04/10 15:32:48;;;;;;;7.6;4.9;;;;;;;13.37;68.66;99663.333333333;;;;
2024/04/10 15:43:48;;;;;;;7.6;4.9;;;;;;;13.4;68.57;99671.666666667;;;;
2024/04/10 15:53:48;;;;;;;7.6;4.9;;;;;;;13.26;68.36;99688.333333333;;;;
2024/04/10 16:03:48;;;;;;;9.9;5.8;;;;;;;13.08;68.37;99700;;;;
2024/04/10 16:13:48;;;;;;;9.9;5.8;;;;;;;13.09;68.3;99718.333333333;;;;
2024/04/10 16:24:48;;;;;;;9.9;5.8;;;;;;;12.99;68.69;99736.666666667;;;;
2024/04/10 16:34:48;;;;;;;8.4;4.7;;;;;;;12.86;68.76;99746.666666667;;;;
2024/04/10 16:44:48;;;;;;;8.4;4.7;;;;;;;12.81;68.77;99756.666666667;;;;
2024/04/10 16:55:48;;;;;;;7;4.8;;;;;;;12.81;69.39;99763.333333333;;;;
2024/04/10 17:06:48;;;;;;;7;4.8;;;;;;;12.8;69.75;99775;;;;
2024/04/10 17:27:48;;;;;;;9.8;5.8;;;;;;;12.6;70.78;99793.333333333;;;;
2024/04/10 17:37:50;;;;;;;9.8;5.8;;;;;;;12.41;71.82;99806.666666667;;;;
2024/04/10 17:47:48;;;;;;;9.8;5.8;;;;;;;12.49;71.29;99820;;;;
2024/04/10 17:58:48;;;;;;;8.8;4.4;;;;;;;12.47;71.74;99843.333333333;;;;
2024/04/10 18:08:48;;;;;;;8.8;4.4;;;;;;;12.45;72.38;99861.666666667;;;;
2024/04/10 18:19:48;;;;;;;8.8;4.4;;;;;;;12.42;73.32;99883.333333333;;;;
2024/04/10 18:29:49;;;;;;;9.5;5.6;;;;;;;12.39;73.8;99903.333333333;;;;
2024/04/10 18:39:48;;;;;;;9.5;5.6;;;;;;;12.34;73.24;99906.666666667;;;;
2024/04/10 18:50:48;;;;;;;9.5;5.6;;;;;;;12.37;73.04;99920;;;;
2024/04/10 19:00:48;;;;;;;11.4;7.5;;;;;;;12.29;72.58;99926.666666667;;;;
2024/04/10 19:10:48;;;;;;;11.4;7.5;;;;;;;12.3;72.66;99941.666666667;;;;
2024/04/10 19:21:48;;;;;;;11.4;7.5;;;;;;;12.25;72.22;99946.666666667;;;;
2024/04/10 19:31:48;;;;;;;8.6;6.5;;;;;;;12.2;72.08;99963.333333333;;;;
2024/04/10 19:42:48;;;;;;;8.6;6.5;;;;;;;12.2;72.31;99983.333333333;;;;
2024/04/10 19:53:49;;;;;;;8.6;6.5;;;;;;;12.15;71.57;99993.333333333;;;;
2024/04/10 20:03:48;;;;;;;9.3;6.7;;;;;;;12.01;73.39;100006.66666667;;;;
2024/04/10 20:13:49;;;;;;;9.3;6.7;;;;;;;12.06;74.2;100025;;;;
2024/04/10 20:24:50;;;;;;;9.3;6.7;;;;;;;12.02;73.45;100040;;;;
2024/04/10 20:34:48;;;;;;;11.7;8.2;;;;;;;11.83;71;100045;;;;
2024/04/10 20:45:49;;;;;;;11.7;8.2;;;;;;;11.81;70.66;100056.66666667;;;;
2024/04/10 20:56:49;;;;;;;7.8;4.3;;;;;;;11.7;70.84;100071.66666667;;;;
2024/04/10 22:10:48;;;;;;;6.9;3.3;;;;;;;11.63;73.97;100136.66666667;;;;
2024/04/10 22:32:49;;;;;;;8;4.1;;;;;;;11.54;74.79;100146.66666667;;;;
2024/04/10 22:43:49;;;;;;;8;4.1;;;;;;;11.66;74.73;100146.66666667;;;;
2024/04/10 22:53:49;;;;;;;8;4.1;;;;;;;11.63;75.11;100156.66666667;;;;
2024/04/10 23:04:49;;;;;;;9.3;3.8;;;;;;;11.57;75.22;100161.66666667;;;;
2024/04/10 23:14:48;;;;;;;9.3;3.8;;;;;;;11.42;75.97;100166.66666667;;;;
2024/04/10 23:25:49;;;;;;;8.1;4.6;;;;;;;11.46;75.76;100163.33333333;;;;
2024/04/10 23:35:49;;;;;;;8.1;4.6;;;;;;;11.54;75.48;100170;;;;
2024/04/10 23:45:49;;;;;;;8.1;4.6;;;;;;;11.57;75.41;100180;;;;
2024/04/10 23:55:49;;;;;;;9.3;4.5;;;;;;;11.51;75.47;100171.66666667;;;;
